Time;durP1;ratioP1;P1;durP2;ratioP2;P2;SDS_P1;SDS_P2;PMS_P1;PMS_P2;Temp;Humidity;BMP_temperature;BMP_pressure;BME280_temperature;BME280_humidity;BME280_pressure;Samples;Min_cycle;Max_cycle;Signal;HPM_P1;HPM_P2
2021/09/12 00:00:49;;;;;;;4.6;3.5;;;;;;;;;;;;;
2021/09/12 00:03:14;;;;;;;3.9;3.3;;;;;;;;;;;;;
2021/09/12 00:05:39;;;;;;;3.7;3.3;;;;;;;;;;;;;
2021/09/12 00:08:04;;;;;;;4.5;3.4;;;;;;;;;;;;;
2021/09/12 00:10:30;;;;;;;4.7;3.6;;;;;;;;;;;;;
2021/09/12 00:12:56;;;;;;;5.2;3.4;;;;;;;;;;;;;
2021/09/12 00:15:20;;;;;;;5.5;3.7;;;;;;;;;;;;;
2021/09/12 00:17:45;;;;;;;4.3;3.4;;;;;;;;;;;;;
2021/09/12 00:20:10;;;;;;;5.4;3.8;;;;;;;;;;;;;
2021/09/12 00:22:35;;;;;;;4;3.5;;;;;;;;;;;;;
2021/09/12 00:25:01;;;;;;;4;3.1;;;;;;;;;;;;;
2021/09/12 00:27:26;;;;;;;5.7;3.7;;;;;;;;;;;;;
2021/09/12 00:29:51;;;;;;;5.6;3.4;;;;;;;;;;;;;
2021/09/12 00:32:16;;;;;;;4.2;3.3;;;;;;;;;;;;;
2021/09/12 00:34:41;;;;;;;4.2;3.6;;;;;;;;;;;;;
2021/09/12 00:37:06;;;;;;;3.8;3.4;;;;;;;;;;;;;
2021/09/12 00:39:32;;;;;;;4.8;3.5;;;;;;;;;;;;;
2021/09/12 00:41:57;;;;;;;4.6;3.5;;;;;;;;;;;;;
2021/09/12 00:44:22;;;;;;;5;3.5;;;;;;;;;;;;;
2021/09/12 00:46:47;;;;;;;3.8;3.1;;;;;;;;;;;;;
2021/09/12 00:49:12;;;;;;;3.6;3.3;;;;;;;;;;;;;
2021/09/12 00:51:38;;;;;;;5;3.4;;;;;;;;;;;;;
2021/09/12 00:54:03;;;;;;;4.6;3.4;;;;;;;;;;;;;
2021/09/12 00:56:28;;;;;;;3.9;3.4;;;;;;;;;;;;;
2021/09/12 00:58:53;;;;;;;4.2;3.4;;;;;;;;;;;;;
2021/09/12 01:01:18;;;;;;;5.8;3.7;;;;;;;;;;;;;
2021/09/12 01:03:43;;;;;;;4.3;3.5;;;;;;;;;;;;;
2021/09/12 01:06:08;;;;;;;4;3.6;;;;;;;;;;;;;
2021/09/12 01:08:34;;;;;;;4.8;3.3;;;;;;;;;;;;;
2021/09/12 01:10:59;;;;;;;3.9;3.5;;;;;;;;;;;;;
2021/09/12 01:13:24;;;;;;;5.6;3.2;;;;;;;;;;;;;
2021/09/12 01:15:49;;;;;;;3.7;3.3;;;;;;;;;;;;;
2021/09/12 01:18:16;;;;;;;4.8;3.2;;;;;;;;;;;;;
2021/09/12 01:20:42;;;;;;;3.7;3.3;;;;;;;;;;;;;
2021/09/12 01:23:08;;;;;;;4;3.3;;;;;;;;;;;;;
2021/09/12 01:25:33;;;;;;;4.1;3.6;;;;;;;;;;;;;
2021/09/12 01:27:58;;;;;;;4;3.4;;;;;;;;;;;;;
2021/09/12 01:30:23;;;;;;;6.8;3.8;;;;;;;;;;;;;
2021/09/12 01:32:48;;;;;;;3.9;3.3;;;;;;;;;;;;;
2021/09/12 01:35:13;;;;;;;3.7;3.3;;;;;;;;;;;;;
2021/09/12 01:37:39;;;;;;;4.6;3.5;;;;;;;;;;;;;
2021/09/12 01:40:03;;;;;;;5.6;3.4;;;;;;;;;;;;;
2021/09/12 01:42:29;;;;;;;3.9;3.5;;;;;;;;;;;;;
2021/09/12 01:44:54;;;;;;;5.7;3.7;;;;;;;;;;;;;
2021/09/12 01:47:19;;;;;;;4.6;3.7;;;;;;;;;;;;;
2021/09/12 01:49:44;;;;;;;4.6;3.8;;;;;;;;;;;;;
2021/09/12 01:52:09;;;;;;;5.4;3.7;;;;;;;;;;;;;
2021/09/12 01:54:34;;;;;;;4.6;4;;;;;;;;;;;;;
2021/09/12 01:56:59;;;;;;;4.9;3.8;;;;;;;;;;;;;
2021/09/12 01:59:24;;;;;;;5.2;3.6;;;;;;;;;;;;;
2021/09/12 02:01:50;;;;;;;5;3.8;;;;;;;;;;;;;
2021/09/12 02:04:16;;;;;;;4;3.3;;;;;;;;;;;;;
2021/09/12 02:06:41;;;;;;;3.8;3.3;;;;;;;;;;;;;
2021/09/12 02:09:06;;;;;;;5.2;3.7;;;;;;;;;;;;;
2021/09/12 02:11:31;;;;;;;3.5;3.2;;;;;;;;;;;;;
2021/09/12 02:13:56;;;;;;;3.3;2.9;;;;;;;;;;;;;
2021/09/12 02:16:21;;;;;;;4.9;3.6;;;;;;;;;;;;;
2021/09/12 02:18:47;;;;;;;4;3.3;;;;;;;;;;;;;
2021/09/12 02:21:12;;;;;;;4.3;3.3;;;;;;;;;;;;;
2021/09/12 02:23:37;;;;;;;3.8;3.3;;;;;;;;;;;;;
2021/09/12 02:26:02;;;;;;;4.1;3.3;;;;;;;;;;;;;
2021/09/12 02:28:27;;;;;;;4.1;3.1;;;;;;;;;;;;;
2021/09/12 02:30:54;;;;;;;4.2;3.3;;;;;;;;;;;;;
2021/09/12 02:33:19;;;;;;;5.3;3.8;;;;;;;;;;;;;
2021/09/12 02:35:44;;;;;;;7;4;;;;;;;;;;;;;
2021/09/12 02:38:12;;;;;;;4.1;3.1;;;;;;;;;;;;;
2021/09/12 02:40:34;;;;;;;3.9;3.3;;;;;;;;;;;;;
2021/09/12 02:42:59;;;;;;;4.4;3.3;;;;;;;;;;;;;
2021/09/12 02:45:25;;;;;;;4.5;3.2;;;;;;;;;;;;;
2021/09/12 02:47:50;;;;;;;3.5;3.1;;;;;;;;;;;;;
2021/09/12 02:50:15;;;;;;;3.8;3.4;;;;;;;;;;;;;
2021/09/12 02:52:40;;;;;;;5.2;3.7;;;;;;;;;;;;;
2021/09/12 02:55:05;;;;;;;3.8;3.1;;;;;;;;;;;;;
2021/09/12 02:57:30;;;;;;;4.7;3.2;;;;;;;;;;;;;
2021/09/12 02:59:56;;;;;;;4.1;3.2;;;;;;;;;;;;;
2021/09/12 03:02:21;;;;;;;4.7;3.4;;;;;;;;;;;;;
2021/09/12 03:04:46;;;;;;;4;3.2;;;;;;;;;;;;;
2021/09/12 03:07:11;;;;;;;4.8;3.4;;;;;;;;;;;;;
2021/09/12 03:09:36;;;;;;;4.2;3.5;;;;;;;;;;;;;
2021/09/12 03:12:01;;;;;;;3.7;3.3;;;;;;;;;;;;;
2021/09/12 03:14:26;;;;;;;4.8;3.7;;;;;;;;;;;;;
2021/09/12 03:16:52;;;;;;;3.9;3.2;;;;;;;;;;;;;
2021/09/12 03:19:17;;;;;;;4.1;3.3;;;;;;;;;;;;;
2021/09/12 03:21:42;;;;;;;3.7;3.3;;;;;;;;;;;;;
2021/09/12 03:24:07;;;;;;;4;3.6;;;;;;;;;;;;;
2021/09/12 03:26:32;;;;;;;4;3.3;;;;;;;;;;;;;
2021/09/12 03:28:57;;;;;;;4.7;3.8;;;;;;;;;;;;;
2021/09/12 03:31:23;;;;;;;4.2;3.5;;;;;;;;;;;;;
2021/09/12 03:33:51;;;;;;;3.9;3.3;;;;;;;;;;;;;
2021/09/12 03:36:13;;;;;;;4.3;3.7;;;;;;;;;;;;;
2021/09/12 03:38:38;;;;;;;4;3.4;;;;;;;;;;;;;
2021/09/12 03:41:03;;;;;;;3.9;3.4;;;;;;;;;;;;;
2021/09/12 03:43:29;;;;;;;3.9;3.5;;;;;;;;;;;;;
2021/09/12 03:45:56;;;;;;;5;3.9;;;;;;;;;;;;;
2021/09/12 03:48:19;;;;;;;4.2;3.6;;;;;;;;;;;;;
2021/09/12 03:50:44;;;;;;;3.9;3.5;;;;;;;;;;;;;
2021/09/12 03:53:09;;;;;;;6.6;4;;;;;;;;;;;;;
2021/09/12 03:55:34;;;;;;;4.2;3.8;;;;;;;;;;;;;
2021/09/12 03:57:59;;;;;;;5.8;5.3;;;;;;;;;;;;;
2021/09/12 04:02:32;;;;;;;4.7;3.9;;;;;;;13.43;96.62891;940.0562;;;;
2021/09/12 04:04:57;;;;;;;8.9;7.3;;;;;;;13.38;97.14941;940.0438;;;;
2021/09/12 04:07:23;;;;;;;4.5;4.1;;;;;;;13.33;98.06836;940.0725;;;;
2021/09/12 04:09:48;;;;;;;4.3;3.9;;;;;;;13.42;97.35254;940.0514;;;;
2021/09/12 04:12:15;;;;;;;3.9;3.5;;;;;;;13.45;96.63477;940.0793;;;;
2021/09/12 04:14:40;;;;;;;6;4.3;;;;;;;13.4;96.48535;940.1142;;;;
2021/09/12 04:17:06;;;;;;;5.3;4.8;;;;;;;13.3;96.96875;940.1116;;;;
2021/09/12 04:19:31;;;;;;;6.3;4.4;;;;;;;13.28;97.07031;940.1188;;;;
2021/09/12 04:21:56;;;;;;;4.5;4.1;;;;;;;13.32;96.66211;940.1365;;;;
2021/09/12 04:24:24;;;;;;;4.9;3.6;;;;;;;13.35;96.1875;940.1573;;;;
2021/09/12 04:26:46;;;;;;;4.5;3.8;;;;;;;13.32;96.10156;940.1653;;;;
2021/09/12 04:29:12;;;;;;;5.1;3.6;;;;;;;13.35;95.81836;940.1414;;;;
2021/09/12 04:31:37;;;;;;;5;3.4;;;;;;;13.42;95.27051;940.1769;;;;
2021/09/12 04:34:02;;;;;;;4.1;3.6;;;;;;;13.29;95.9209;940.1141;;;;
2021/09/12 04:36:28;;;;;;;3.2;2.8;;;;;;;13.31;95.66016;940.0541;;;;
2021/09/12 04:38:53;;;;;;;3.7;3.3;;;;;;;13.18;95.94336;940.1175;;;;
2021/09/12 04:41:18;;;;;;;5.6;4.6;;;;;;;13.23;96.06934;940.0723;;;;
2021/09/12 04:43:43;;;;;;;4.9;3.2;;;;;;;13.26;95.9834;940.074;;;;
2021/09/12 04:46:08;;;;;;;4.5;3.1;;;;;;;13.37;95.2627;940.0719;;;;
2021/09/12 04:48:34;;;;;;;3.4;3;;;;;;;13.39;94.61133;940.0703;;;;
2021/09/12 04:50:59;;;;;;;4;3.3;;;;;;;13.49;93.82617;940.1202;;;;
2021/09/12 04:53:24;;;;;;;3.4;3.1;;;;;;;13.44;93.96582;940.1258;;;;
2021/09/12 04:55:49;;;;;;;3.2;2.8;;;;;;;13.39;93.93359;940.0974;;;;
2021/09/12 04:58:14;;;;;;;3.8;3.2;;;;;;;13.41;93.53516;940.2086;;;;
2021/09/12 05:00:39;;;;;;;4.5;3.2;;;;;;;13.48;92.96387;940.2131;;;;
2021/09/12 05:03:05;;;;;;;5;3.4;;;;;;;13.41;93.68457;940.1142;;;;
2021/09/12 05:05:30;;;;;;;4;3.3;;;;;;;13.38;93.82813;940.195;;;;
2021/09/12 05:07:55;;;;;;;4;3.3;;;;;;;13.34;94.32227;940.1046;;;;
2021/09/12 05:10:20;;;;;;;4;3.2;;;;;;;13.4;94.47363;940.2191;;;;
2021/09/12 05:12:45;;;;;;;4.1;3.1;;;;;;;13.38;94.43555;940.1758;;;;
2021/09/12 05:15:12;;;;;;;4.4;3.5;;;;;;;13.53;93.51465;940.2388;;;;
2021/09/12 05:17:37;;;;;;;3.8;3.4;;;;;;;13.59;93.43359;940.2244;;;;
2021/09/12 05:20:02;;;;;;;4.3;3.2;;;;;;;13.59;93.42285;940.2595;;;;
2021/09/12 05:22:28;;;;;;;4.7;3.3;;;;;;;13.64;92.98535;940.3208;;;;
2021/09/12 05:24:53;;;;;;;3.7;3.4;;;;;;;13.78;92.41797;940.1824;;;;
2021/09/12 05:27:18;;;;;;;4.6;3.5;;;;;;;13.8;92.37402;940.2288;;;;
2021/09/12 05:29:43;;;;;;;3.6;3.3;;;;;;;13.86;92.07715;940.2547;;;;
2021/09/12 05:32:09;;;;;;;4.1;3.3;;;;;;;13.82;92.12695;940.2875;;;;
2021/09/12 05:34:34;;;;;;;4.1;3.2;;;;;;;13.95;91.50879;940.2723;;;;
2021/09/12 05:36:59;;;;;;;4.5;3.2;;;;;;;13.75;91.9834;940.2488;;;;
2021/09/12 05:39:24;;;;;;;4.2;3.3;;;;;;;13.9;92.03809;940.3107;;;;
2021/09/12 05:41:49;;;;;;;5.2;3.4;;;;;;;14.04;91.18457;940.3358;;;;
2021/09/12 05:44:15;;;;;;;3.8;2.8;;;;;;;14.05;91.26563;940.2701;;;;
2021/09/12 05:46:40;;;;;;;4.1;2.9;;;;;;;14.04;91.29785;940.2725;;;;
2021/09/12 05:49:07;;;;;;;3.9;2.8;;;;;;;13.89;92.74023;940.2347;;;;
2021/09/12 05:51:32;;;;;;;3.4;3.1;;;;;;;14.32;91.90918;940.2108;;;;
2021/09/12 05:53:57;;;;;;;3.1;2.6;;;;;;;14.75;89.08398;940.2546;;;;
2021/09/12 05:56:23;;;;;;;4.1;2.4;;;;;;;15.52;85.19824;940.2866;;;;
2021/09/12 05:58:48;;;;;;;2.5;2.2;;;;;;;16.19;81.34961;940.2609;;;;
2021/09/12 06:01:13;;;;;;;3.2;2.3;;;;;;;17.31;76.37402;940.2456;;;;
2021/09/12 06:03:38;;;;;;;2.4;2.2;;;;;;;19.06;70.2168;940.2949;;;;
2021/09/12 06:06:04;;;;;;;3.6;1.9;;;;;;;20.2;65.35645;940.2372;;;;
2021/09/12 06:08:29;;;;;;;3;2;;;;;;;20.42;63.44824;940.252;;;;
2021/09/12 06:10:55;;;;;;;2.1;1.9;;;;;;;21.71;59.95703;940.2256;;;;
2021/09/12 06:13:20;;;;;;;2.3;2.1;;;;;;;22.7;56.46387;940.244;;;;
2021/09/12 06:15:45;;;;;;;2.2;1.9;;;;;;;22.65;56.03516;940.2481;;;;
2021/09/12 06:18:10;;;;;;;2.4;2.1;;;;;;;21.54;58.24805;940.24;;;;
2021/09/12 06:20:35;;;;;;;2.7;2.1;;;;;;;22.65;57.11426;940.2628;;;;
2021/09/12 06:23:02;;;;;;;3;2.1;;;;;;;23.9;52.4375;940.218;;;;
2021/09/12 06:25:27;;;;;;;4.2;2.3;;;;;;;23.85;52.01953;940.2305;;;;
2021/09/12 06:27:52;;;;;;;2.5;2.3;;;;;;;24.1;51.75488;940.2695;;;;
2021/09/12 06:30:18;;;;;;;3.2;1.9;;;;;;;23.64;52.6543;940.3055;;;;
2021/09/12 06:32:42;;;;;;;2.4;2.2;;;;;;;23.71;53.00293;940.3105;;;;
2021/09/12 06:35:07;;;;;;;2.3;2.1;;;;;;;24.58;51.45703;940.2729;;;;
2021/09/12 06:37:33;;;;;;;4;2.1;;;;;;;24.89;50.46582;940.2141;;;;
2021/09/12 06:39:57;;;;;;;3;2.2;;;;;;;25.64;48.41211;940.2288;;;;
2021/09/12 06:42:23;;;;;;;2.3;2.1;;;;;;;24.74;49.35254;940.2399;;;;
2021/09/12 06:44:48;;;;;;;2.4;2.1;;;;;;;24.33;50.73242;940.1766;;;;
2021/09/12 06:47:13;;;;;;;2.6;2.2;;;;;;;23.39;52.71875;940.2978;;;;
2021/09/12 06:49:38;;;;;;;2.8;2.4;;;;;;;22.88;56.75586;940.1767;;;;
2021/09/12 06:52:03;;;;;;;4.4;2.7;;;;;;;19.92;66.56348;940.2187;;;;
2021/09/12 06:54:29;;;;;;;3.9;3.1;;;;;;;20.85;64.15332;940.1177;;;;
2021/09/12 06:56:54;;;;;;;3.8;2.5;;;;;;;19.56;67.52148;940.2206;;;;
2021/09/12 06:59:19;;;;;;;2.9;2.6;;;;;;;18.68;71.37793;940.2209;;;;
2021/09/12 07:01:44;;;;;;;3.7;2.5;;;;;;;18.11;73.17871;940.2176;;;;
2021/09/12 07:04:09;;;;;;;3.3;2.6;;;;;;;18.28;73.47363;940.2053;;;;
2021/09/12 07:06:34;;;;;;;3.9;2.7;;;;;;;18.17;75.6416;940.1964;;;;
2021/09/12 07:08:59;;;;;;;3.5;2.8;;;;;;;18.02;75.45215;940.0995;;;;
2021/09/12 07:11:24;;;;;;;3.5;2.9;;;;;;;18.4;73.45996;940.1589;;;;
2021/09/12 07:13:49;;;;;;;2.6;2.4;;;;;;;18.94;71.82715;940.1379;;;;
2021/09/12 07:16:15;;;;;;;4;2.7;;;;;;;19.59;69.16016;940.0865;;;;
2021/09/12 07:18:40;;;;;;;3.2;2.4;;;;;;;20.47;66.94824;940.0858;;;;
2021/09/12 07:21:05;;;;;;;2.7;2.1;;;;;;;20.56;65;940.0253;;;;
2021/09/12 07:23:31;;;;;;;5.6;2.2;;;;;;;21.19;63.85254;940.0095;;;;
2021/09/12 07:25:56;;;;;;;5;2.5;;;;;;;21.21;62.70898;940.0187;;;;
2021/09/12 07:28:21;;;;;;;3.2;2.7;;;;;;;20.47;64.65918;940.0488;;;;
2021/09/12 07:30:46;;;;;;;3.3;2.7;;;;;;;21.4;64.15137;940.0737;;;;
2021/09/12 07:33:11;;;;;;;5.3;2.5;;;;;;;21.51;62.42383;939.9735;;;;
2021/09/12 07:35:37;;;;;;;3.6;2.5;;;;;;;22.64;59.07227;940.0261;;;;
2021/09/12 07:38:02;;;;;;;2.9;2.6;;;;;;;22.42;59.79395;940.0582;;;;
2021/09/12 07:40:29;;;;;;;3;2.3;;;;;;;23.02;58.57031;940.0549;;;;
2021/09/12 07:42:54;;;;;;;3.7;2.4;;;;;;;23.61;55.07324;940.1089;;;;
2021/09/12 07:45:19;;;;;;;2.8;2.6;;;;;;;24.77;52.90527;940.06;;;;
2021/09/12 07:47:44;;;;;;;2.4;2.2;;;;;;;24.73;52.47656;939.9728;;;;
2021/09/12 07:50:11;;;;;;;2.7;2.4;;;;;;;26.1;48.49707;940.0172;;;;
2021/09/12 07:52:36;;;;;;;2.8;2.6;;;;;;;26.6;48.05469;939.9993;;;;
2021/09/12 07:55:00;;;;;;;2.9;2.7;;;;;;;26.41;48.9668;939.9833;;;;
2021/09/12 07:57:25;;;;;;;2.8;2;;;;;;;26.83;46.7041;939.9808;;;;
2021/09/12 07:59:50;;;;;;;2.2;2;;;;;;;28.27;44.27344;940.0033;;;;
2021/09/12 08:02:16;;;;;;;2.9;2.5;;;;;;;26.42;49.65527;939.9861;;;;
2021/09/12 08:04:41;;;;;;;2.6;2.2;;;;;;;27.73;45.45703;940.0095;;;;
2021/09/12 08:07:06;;;;;;;2.5;2.3;;;;;;;27.26;46.57031;940.0037;;;;
2021/09/12 08:09:32;;;;;;;2.4;2.1;;;;;;;26.63;49.43066;939.9497;;;;
2021/09/12 08:11:56;;;;;;;2.6;2.4;;;;;;;25.97;51.24902;939.9651;;;;
2021/09/12 08:14:21;;;;;;;2.4;2.2;;;;;;;26.65;50.97266;939.9138;;;;
2021/09/12 08:16:46;;;;;;;3.4;2.4;;;;;;;26.71;50.91992;939.9409;;;;
2021/09/12 08:19:11;;;;;;;2.4;2.2;;;;;;;27.58;49.09668;940.0089;;;;
2021/09/12 08:21:37;;;;;;;2.6;2.2;;;;;;;26.85;48.56641;939.9366;;;;
2021/09/12 08:24:02;;;;;;;2.8;2.5;;;;;;;28.51;44.58398;939.9871;;;;
2021/09/12 08:26:27;;;;;;;3;2.4;;;;;;;26.34;49.62402;939.9724;;;;
2021/09/12 08:28:52;;;;;;;3.5;2.5;;;;;;;26.13;51.11328;939.9327;;;;
2021/09/12 08:31:17;;;;;;;2.6;2.4;;;;;;;26.4;49.52344;939.9592;;;;
2021/09/12 08:33:42;;;;;;;2.5;2.3;;;;;;;27.1;48.43848;939.8812;;;;
2021/09/12 08:36:07;;;;;;;2.5;2.3;;;;;;;26.48;50.17188;939.9116;;;;
2021/09/12 08:38:32;;;;;;;3;2.4;;;;;;;26.12;50.45117;939.919;;;;
2021/09/12 08:40:57;;;;;;;2.8;2.3;;;;;;;26.31;49.81055;939.8455;;;;
2021/09/12 08:43:22;;;;;;;2.5;2.3;;;;;;;26.15;50.71387;939.9056;;;;
2021/09/12 08:45:48;;;;;;;3.2;2.6;;;;;;;27.31;47.67773;939.9277;;;;
2021/09/12 08:48:13;;;;;;;2.5;2.3;;;;;;;26.02;50.22656;939.9187;;;;
2021/09/12 08:50:38;;;;;;;3.1;2.8;;;;;;;25.74;50.91602;939.8722;;;;
2021/09/12 08:53:03;;;;;;;3;2.7;;;;;;;26.79;48.53613;939.8244;;;;
2021/09/12 08:55:28;;;;;;;2.8;2.6;;;;;;;26.54;48.93457;939.8628;;;;
2021/09/12 08:57:53;;;;;;;2.7;2.4;;;;;;;26.05;51.25977;939.8643;;;;
2021/09/12 09:00:19;;;;;;;3.4;2.7;;;;;;;25.46;52.43164;939.8438;;;;
2021/09/12 09:02:43;;;;;;;3.6;2.7;;;;;;;26.47;50.26563;939.8318;;;;
2021/09/12 09:05:08;;;;;;;2.9;2.6;;;;;;;26.05;52.13379;939.8474;;;;
2021/09/12 09:07:33;;;;;;;2.4;2.2;;;;;;;25.83;51.50586;939.8404;;;;
2021/09/12 09:10:00;;;;;;;3;2.7;;;;;;;25.5;53.25195;939.744;;;;
2021/09/12 09:12:24;;;;;;;3.8;2.4;;;;;;;25.26;55.15918;939.8181;;;;
2021/09/12 09:14:49;;;;;;;2.5;2.3;;;;;;;25.19;53.72168;939.7297;;;;
2021/09/12 09:17:14;;;;;;;2.5;2.3;;;;;;;25.98;53.00098;939.7821;;;;
2021/09/12 09:19:39;;;;;;;2.5;2.3;;;;;;;25.51;52.35547;939.7305;;;;
2021/09/12 09:22:04;;;;;;;2.6;2.2;;;;;;;26.87;48.42578;939.7339;;;;
2021/09/12 09:24:29;;;;;;;2.7;2.5;;;;;;;27.31;45.38965;939.7139;;;;
2021/09/12 09:26:54;;;;;;;2.7;2.3;;;;;;;26.88;50.85742;939.6196;;;;
2021/09/12 09:29:19;;;;;;;2.7;2.5;;;;;;;25.83;51.96777;939.6453;;;;
2021/09/12 09:31:44;;;;;;;2.8;2.6;;;;;;;24.96;55.55762;939.5962;;;;
2021/09/12 09:34:12;;;;;;;2.7;2.5;;;;;;;23.8;59.40527;939.6333;;;;
2021/09/12 09:36:37;;;;;;;3.1;2.8;;;;;;;23.34;62.54004;939.7032;;;;
2021/09/12 09:39:02;;;;;;;2.7;2.5;;;;;;;22.52;64.38574;939.662;;;;
2021/09/12 09:41:27;;;;;;;3.9;2.4;;;;;;;23.66;62.2207;939.6259;;;;
2021/09/12 09:43:52;;;;;;;2.9;2.7;;;;;;;23.46;61.99219;939.6194;;;;
2021/09/12 09:46:17;;;;;;;3.1;2.7;;;;;;;23.03;63.73047;939.5916;;;;
2021/09/12 09:48:43;;;;;;;3.5;2.7;;;;;;;22.54;68.13086;939.5656;;;;
2021/09/12 09:51:08;;;;;;;3.3;2.9;;;;;;;22.78;65.59766;939.5266;;;;
2021/09/12 09:53:33;;;;;;;3.1;2.8;;;;;;;22.54;63.0498;939.5105;;;;
2021/09/12 09:55:58;;;;;;;3.1;2.7;;;;;;;22.26;66.61035;939.4921;;;;
2021/09/12 09:58:23;;;;;;;3.8;2.9;;;;;;;22.42;66.3291;939.4747;;;;
2021/09/12 10:00:48;;;;;;;3.1;2.8;;;;;;;22.83;65.95605;939.5165;;;;
2021/09/12 10:03:13;;;;;;;3;2.7;;;;;;;23.09;63.80957;939.5578;;;;
2021/09/12 10:05:39;;;;;;;2.9;2.6;;;;;;;22.77;63.61035;939.5019;;;;
2021/09/12 10:08:04;;;;;;;6.7;4.3;;;;;;;22.83;65.26367;939.459;;;;
2021/09/12 10:10:29;;;;;;;3.7;2.8;;;;;;;23.47;62.81738;939.4734;;;;
2021/09/12 10:12:54;;;;;;;4;2.8;;;;;;;23.85;62.22363;939.4717;;;;
2021/09/12 10:15:19;;;;;;;3.2;2.9;;;;;;;24.34;60.81934;939.4053;;;;
2021/09/12 10:17:44;;;;;;;4.6;3.4;;;;;;;25;59.66992;939.3761;;;;
2021/09/12 10:20:10;;;;;;;5.6;3.6;;;;;;;24.87;58.91016;939.3555;;;;
2021/09/12 10:22:34;;;;;;;2.7;2.5;;;;;;;24.84;60.02539;939.3683;;;;
2021/09/12 10:24:59;;;;;;;2.9;2.5;;;;;;;25.41;56.86621;939.3451;;;;
2021/09/12 10:27:25;;;;;;;4.1;3.1;;;;;;;25.6;56.68945;939.3177;;;;
2021/09/12 10:29:52;;;;;;;4;2.7;;;;;;;25.85;54.73535;939.2773;;;;
2021/09/12 10:32:14;;;;;;;3.5;3;;;;;;;25.55;56.95508;939.2751;;;;
2021/09/12 10:34:40;;;;;;;3;2.6;;;;;;;26.09;55.20313;939.2335;;;;
2021/09/12 10:37:05;;;;;;;3.9;2.7;;;;;;;26.36;52.56152;939.2008;;;;
2021/09/12 10:39:32;;;;;;;2.8;2.5;;;;;;;27.19;51.40137;939.2353;;;;
2021/09/12 10:41:56;;;;;;;3.2;2.8;;;;;;;26.97;54.62305;939.2087;;;;
2021/09/12 10:44:21;;;;;;;4;2.8;;;;;;;27.4;51.86328;939.1376;;;;
2021/09/12 10:46:46;;;;;;;3.4;2.6;;;;;;;28.04;48.74316;939.1506;;;;
2021/09/12 10:49:12;;;;;;;3.1;2.8;;;;;;;29.38;44.97949;939.1278;;;;
2021/09/12 10:51:37;;;;;;;2.9;2.7;;;;;;;28.96;46.58105;939.1696;;;;
2021/09/12 10:54:02;;;;;;;3.2;2.9;;;;;;;28.26;47.92285;939.0731;;;;
2021/09/12 10:56:28;;;;;;;2.9;2.7;;;;;;;28.31;49.36621;939.0803;;;;
2021/09/12 10:58:52;;;;;;;4;2.5;;;;;;;29.85;43.69043;939.0786;;;;
2021/09/12 11:01:17;;;;;;;2.9;2.6;;;;;;;30.08;43.7373;939.0217;;;;
2021/09/12 11:03:42;;;;;;;4.4;2.7;;;;;;;29.39;45.69531;938.965;;;;
2021/09/12 11:06:07;;;;;;;3.3;2.6;;;;;;;28.86;47.02148;938.9954;;;;
2021/09/12 11:08:33;;;;;;;2.8;2.5;;;;;;;28.39;48.20996;938.9261;;;;
2021/09/12 11:10:58;;;;;;;3.1;2.8;;;;;;;29.47;46.18066;938.9464;;;;
2021/09/12 11:13:23;;;;;;;3;2.7;;;;;;;29.88;44.74316;938.9716;;;;
2021/09/12 11:15:48;;;;;;;3.3;3;;;;;;;28.38;48.18555;938.9801;;;;
2021/09/12 11:18:13;;;;;;;4;2.8;;;;;;;27.76;49.3418;938.9719;;;;
2021/09/12 11:20:39;;;;;;;7;2.9;;;;;;;27.46;51.51465;939.0243;;;;
2021/09/12 11:23:04;;;;;;;3.4;2.8;;;;;;;27.35;49.91309;938.9817;;;;
2021/09/12 11:25:29;;;;;;;3.3;2.7;;;;;;;27.02;52.91016;939.0415;;;;
2021/09/12 11:27:54;;;;;;;3.4;2.7;;;;;;;26.98;53.57031;938.9539;;;;
2021/09/12 11:30:19;;;;;;;3.4;3.1;;;;;;;27.35;50.58984;938.8546;;;;
2021/09/12 11:32:44;;;;;;;2.9;2.7;;;;;;;26.11;54.15234;938.8494;;;;
2021/09/12 11:35:09;;;;;;;4.1;3.1;;;;;;;25.47;57.27539;938.748;;;;
2021/09/12 11:37:34;;;;;;;3;2.6;;;;;;;25.1;58.38477;938.7606;;;;
2021/09/12 11:39:59;;;;;;;3.1;2.8;;;;;;;25.43;56.38379;938.8395;;;;
2021/09/12 11:42:26;;;;;;;3.3;3;;;;;;;25.32;57.39941;938.8003;;;;
2021/09/12 11:44:51;;;;;;;3.4;3.1;;;;;;;25.31;57.64453;938.7023;;;;
2021/09/12 11:47:18;;;;;;;3.3;3;;;;;;;24.92;59.69434;938.7138;;;;
2021/09/12 11:49:42;;;;;;;3.1;2.8;;;;;;;25.21;56.4043;938.7134;;;;
2021/09/12 11:52:08;;;;;;;4.8;3.3;;;;;;;25.07;58.28711;938.7222;;;;
2021/09/12 11:54:35;;;;;;;3.4;3.1;;;;;;;24.77;60.92578;938.6877;;;;
2021/09/12 11:56:58;;;;;;;3.1;2.8;;;;;;;25.04;58.47266;938.6672;;;;
2021/09/12 11:59:24;;;;;;;3.5;3.1;;;;;;;25.21;58.82422;938.6858;;;;
2021/09/12 12:01:49;;;;;;;3.4;3.1;;;;;;;25.08;60.03516;938.6902;;;;
2021/09/12 12:04:14;;;;;;;3.5;3.2;;;;;;;24.88;59.37012;938.6522;;;;
2021/09/12 12:06:41;;;;;;;3.5;3.1;;;;;;;24.66;61.78223;938.6144;;;;
2021/09/12 12:09:05;;;;;;;3.5;3.2;;;;;;;24.42;62.85742;938.6348;;;;
2021/09/12 12:11:30;;;;;;;3.7;3.2;;;;;;;24.24;60.87598;938.613;;;;
2021/09/12 12:13:55;;;;;;;4.7;3;;;;;;;24.91;58.62012;938.57;;;;
2021/09/12 12:16:21;;;;;;;4.1;3;;;;;;;25.35;58.63086;938.5049;;;;
2021/09/12 12:18:46;;;;;;;2.8;2.6;;;;;;;25.73;57.16699;938.4564;;;;
2021/09/12 12:21:11;;;;;;;3.2;2.9;;;;;;;25.36;59.82422;938.4483;;;;
2021/09/12 12:23:36;;;;;;;3.4;2.9;;;;;;;25.37;58.2666;938.4371;;;;
2021/09/12 12:26:01;;;;;;;4;3.2;;;;;;;25.45;57.32031;938.413;;;;
2021/09/12 12:28:27;;;;;;;4.4;3;;;;;;;25.42;57.68262;938.407;;;;
2021/09/12 12:30:52;;;;;;;3.6;2.9;;;;;;;24.77;59.96875;938.4239;;;;
2021/09/12 12:33:17;;;;;;;3.3;2.8;;;;;;;24.65;59.69336;938.4529;;;;
2021/09/12 12:35:43;;;;;;;4.2;3.5;;;;;;;24.93;59.75488;938.4297;;;;
2021/09/12 12:38:08;;;;;;;3.4;3.1;;;;;;;25.23;58.54395;938.3311;;;;
2021/09/12 12:40:33;;;;;;;3.5;2.9;;;;;;;25.43;58.83008;938.2453;;;;
2021/09/12 12:42:59;;;;;;;3.6;3;;;;;;;25.63;57.10742;938.2324;;;;
2021/09/12 12:45:24;;;;;;;3.3;2.9;;;;;;;25.06;60.54004;938.2141;;;;
2021/09/12 12:47:49;;;;;;;3.9;3.5;;;;;;;24.29;63.99219;938.2534;;;;
2021/09/12 12:50:14;;;;;;;3.8;3.2;;;;;;;24.1;62.93066;938.2035;;;;
2021/09/12 12:52:39;;;;;;;3.4;3.1;;;;;;;24.37;62.55566;938.1819;;;;
2021/09/12 12:55:06;;;;;;;5.1;3.6;;;;;;;23.75;66.22266;938.1473;;;;
2021/09/12 12:57:29;;;;;;;3.9;3.5;;;;;;;23.91;64.96191;938.1108;;;;
2021/09/12 12:59:54;;;;;;;3.4;3.1;;;;;;;24.12;62.61523;938.1459;;;;
2021/09/12 13:02:19;;;;;;;4.4;3.1;;;;;;;24.21;61.99121;938.077;;;;
2021/09/12 13:04:45;;;;;;;3.6;3.2;;;;;;;24.01;62.88086;938.0538;;;;
2021/09/12 13:07:10;;;;;;;4.1;3.3;;;;;;;24.15;63.19434;938.022;;;;
2021/09/12 13:09:35;;;;;;;4.3;3.3;;;;;;;24.1;63.625;938.0433;;;;
2021/09/12 13:12:00;;;;;;;3;2.7;;;;;;;24.42;61.01758;937.9561;;;;
2021/09/12 13:14:25;;;;;;;3.3;3;;;;;;;24.3;62.11035;937.9751;;;;
2021/09/12 13:16:50;;;;;;;2.9;2.7;;;;;;;24.44;62.41211;937.9895;;;;
2021/09/12 13:19:15;;;;;;;3.5;2.6;;;;;;;24.39;62.33496;937.9465;;;;
2021/09/12 13:21:41;;;;;;;3.4;3.1;;;;;;;24.54;61.75391;938.0095;;;;
2021/09/12 13:24:06;;;;;;;2.8;2.6;;;;;;;24.42;61.80859;937.9803;;;;
2021/09/12 13:26:31;;;;;;;3.1;2.8;;;;;;;24.4;63.97363;937.9747;;;;
2021/09/12 13:28:56;;;;;;;5.1;3.1;;;;;;;24.09;63.55273;937.9917;;;;
2021/09/12 13:31:21;;;;;;;3.6;3.3;;;;;;;23.84;65.09375;937.972;;;;
2021/09/12 13:33:50;;;;;;;4;2.5;;;;;;;23.95;63.25;937.9864;;;;
2021/09/12 13:36:11;;;;;;;6.4;3.3;;;;;;;23.71;63.70801;937.945;;;;
2021/09/12 13:38:37;;;;;;;3.3;2.8;;;;;;;23.58;67.28906;938.0046;;;;
2021/09/12 13:41:02;;;;;;;2.9;2.6;;;;;;;23.94;63.74219;938.0037;;;;
2021/09/12 13:43:27;;;;;;;2.8;2.6;;;;;;;23.82;63.93652;937.9426;;;;
2021/09/12 13:45:52;;;;;;;3.5;2.9;;;;;;;23.86;64.71875;937.9356;;;;
2021/09/12 13:48:19;;;;;;;3.1;2.8;;;;;;;23.99;63.2666;937.9447;;;;
2021/09/12 13:50:44;;;;;;;3.5;3;;;;;;;24.26;62.02148;937.8861;;;;
2021/09/12 13:53:21;;;;;;;3.2;2.8;;;;;;;24.12;63.22754;937.9448;;;;
2021/09/12 13:55:46;;;;;;;3.7;2.6;;;;;;;24.5;61.51172;937.9261;;;;
2021/09/12 13:58:11;;;;;;;3;2.7;;;;;;;24.02;63.28223;937.8661;;;;
2021/09/12 14:01:04;;;;;;;3.4;2.9;;;;;;;23.9;63.59668;937.9558;;;;
2021/09/12 14:03:29;;;;;;;2.9;2.5;;;;;;;23.36;65.88086;937.9512;;;;
2021/09/12 14:06:12;;;;;;;2.7;2.5;;;;;;;23.64;65.07715;937.9648;;;;
2021/09/12 14:08:36;;;;;;;2.9;2.7;;;;;;;23.72;64.3125;937.95;;;;
2021/09/12 14:11:01;;;;;;;3;2.7;;;;;;;23.84;63.31543;937.9512;;;;
2021/09/12 14:13:28;;;;;;;2.9;2.7;;;;;;;23.59;65.18652;937.9545;;;;
2021/09/12 14:15:53;;;;;;;3;2.7;;;;;;;23.64;65.22949;937.998;;;;
2021/09/12 14:18:18;;;;;;;2.8;2.6;;;;;;;23.56;64.27734;937.9572;;;;
2021/09/12 14:20:44;;;;;;;2.9;2.6;;;;;;;23.74;64.00879;937.9231;;;;
2021/09/12 14:23:09;;;;;;;6.2;3.2;;;;;;;23.87;63.93262;937.883;;;;
2021/09/12 14:25:34;;;;;;;3.2;2.9;;;;;;;23.55;64.35645;937.8892;;;;
2021/09/12 14:27:59;;;;;;;2.6;2.4;;;;;;;23.42;63.92676;937.847;;;;
2021/09/12 14:30:25;;;;;;;3;2.7;;;;;;;23.42;65.52637;937.8997;;;;
2021/09/12 14:32:50;;;;;;;2.9;2.7;;;;;;;23.68;63.45898;937.8973;;;;
2021/09/12 14:35:15;;;;;;;2.6;2.4;;;;;;;23.52;64.4834;937.8447;;;;
2021/09/12 14:37:41;;;;;;;3.1;2.5;;;;;;;23.83;64.72656;937.8384;;;;
2021/09/12 14:40:05;;;;;;;4;2.3;;;;;;;24.14;62.65234;937.8375;;;;
2021/09/12 14:42:31;;;;;;;2.6;2.4;;;;;;;23.86;63.01367;937.8354;;;;
2021/09/12 14:44:56;;;;;;;3.2;2.3;;;;;;;23.69;64.13086;937.8261;;;;
2021/09/12 14:47:21;;;;;;;2.6;2.4;;;;;;;23.88;63.0752;937.8633;;;;
2021/09/12 14:49:46;;;;;;;3.1;2.8;;;;;;;24.13;61.89746;937.8519;;;;
2021/09/12 14:52:11;;;;;;;2.5;2.3;;;;;;;24.25;62.46777;937.894;;;;
2021/09/12 14:54:36;;;;;;;3.5;2.5;;;;;;;24.38;61.11816;937.818;;;;
2021/09/12 14:57:01;;;;;;;3.3;2.7;;;;;;;24.06;61.22852;937.9185;;;;
2021/09/12 14:59:27;;;;;;;3;2.7;;;;;;;23.91;63.06836;937.8731;;;;
2021/09/12 15:01:52;;;;;;;3.3;2.6;;;;;;;23.97;62.0166;937.8895;;;;
2021/09/12 15:04:23;;;;;;;2.6;2.4;;;;;;;24.08;61.82129;937.8669;;;;
2021/09/12 15:06:43;;;;;;;2.7;2.5;;;;;;;24.02;62.36523;937.8278;;;;
2021/09/12 15:09:08;;;;;;;2.8;2.6;;;;;;;24.13;61.68555;937.8405;;;;
2021/09/12 15:11:34;;;;;;;3;2.7;;;;;;;24.32;61.00488;937.7902;;;;
2021/09/12 15:13:58;;;;;;;2.7;2.4;;;;;;;24.37;60.88184;937.798;;;;
2021/09/12 15:16:24;;;;;;;3.1;2.7;;;;;;;24.5;61.05176;937.8519;;;;
2021/09/12 15:18:49;;;;;;;2.4;2.2;;;;;;;24.5;62.1377;937.7891;;;;
2021/09/12 15:21:15;;;;;;;2.4;2.2;;;;;;;24.45;60.67969;937.8078;;;;
2021/09/12 15:23:40;;;;;;;4.4;3;;;;;;;24.53;60.32617;937.7372;;;;
2021/09/12 15:26:07;;;;;;;3;2.6;;;;;;;24.47;61.28418;937.7499;;;;
2021/09/12 15:28:32;;;;;;;2.7;2.5;;;;;;;24.24;62.40723;937.7009;;;;
2021/09/12 15:30:58;;;;;;;3;2.4;;;;;;;24.28;61.54102;937.7333;;;;